LIVE Streaming HD
Get Adobe Flash player
Annunci di Google
Annunci di Vedetta
Annunci di Google
Fasi Lunari
Satellite
satellite e T nubi
Previsione
Dati meteo stazione (refresh automatico ogni minuto)
Ostia(RM) VENTO: VELOCITÀ   PIOGGIA: QTA GIORNO TEMPERATURA: ATTUALE
SPOT: Kursaal Lido Ostia ---- Posizione su Googlemap:Latitudine: 41.71N Longitudine: 12.31E RAFFICA MASSIMA: QTA MENSILE: MASSIMA:
VELOCITÀ MEDIA: QTA ANNUALE: MINIMA:
DIREZIONE: UMIDITÀ: WIND CHILL:
TIPO: DEW POINT:
BEAUFORT: PRESSIONE:
I nostri partner
Ostia(RM) nelle ultime ore
Applica filtri in visualizzazione Intervallo delle letture nelle ultime

Ora Direzione Vento Velocita' Vento Media Vento Raffica Max. Temperatura Wind Chill Pioggia Pressione
17:45:08266 °(W)3.4 Kts3.43 Kts8.2 Kts32.5 °C35.33 °C0 mm1019.6 Hpa
17:40:42271 °(W)3.6 Kts3.86 Kts8.2 Kts32.7 °C35.58 °C0 mm1017.7 Hpa
17:34:50268 °(W)4.8 Kts4.9 Kts8.2 Kts33.2 °C36.27 °C0 mm1018.9 Hpa
17:29:58266 °(W)5.7 Kts5.06 Kts8.2 Kts33.9 °C37.17 °C0 mm1017.5 Hpa
17:25:48262 °(W)4.4 Kts4.56 Kts8.2 Kts34 °C37.18 °C0 mm1018 Hpa
17:20:35262 °(W)5.1 Kts5.9 Kts8.2 Kts34 °C37.22 °C0 mm1018.7 Hpa
17:15:43259 °(W)5.2 Kts5.46 Kts8.2 Kts33.7 °C36.92 °C0 mm1018.7 Hpa
17:10:24259 °(W)5.4 Kts5.83 Kts8.2 Kts33.5 °C36.68 °C0 mm1018.7 Hpa
17:05:09262 °(W)6.5 Kts5.96 Kts8.2 Kts33.5 °C36.75 °C0 mm1018 Hpa
17:00:48268 °(W)6.1 Kts5.83 Kts8.2 Kts33.5 °C36.73 °C0 mm1017.5 Hpa
16:55:36266 °(W)5.6 Kts5.4 Kts8.2 Kts33.4 °C36.57 °C0 mm1017.5 Hpa
16:50:23274 °(W)6 Kts5.66 Kts8.2 Kts33.4 °C36.61 °C0 mm1018 Hpa
16:45:10263 °(W)5.9 Kts5.96 Kts8.2 Kts33.2 °C36.37 °C0 mm1018 Hpa
16:40:13264 °(W)5.7 Kts5.96 Kts8.2 Kts33.4 °C36.57 °C0 mm1018 Hpa
16:35:34262 °(W)5.9 Kts5.63 Kts8.2 Kts33.4 °C36.61 °C0 mm1018 Hpa
16:30:16273 °(W)3.8 Kts5 Kts8.2 Kts33.5 °C36.54 °C0 mm1018.5 Hpa
16:25:02260 °(W)5.6 Kts5.03 Kts8.2 Kts33.2 °C36.33 °C0 mm1018.5 Hpa
16:20:51276 °(W)5.7 Kts5.46 Kts8.2 Kts33.2 °C36.33 °C0 mm1019 Hpa
16:15:33264 °(W)6.2 Kts6.6 Kts8.2 Kts33.2 °C36.39 °C0 mm1019 Hpa
16:10:17274 °(W)6.1 Kts6.8 Kts8.2 Kts33.2 °C36.37 °C0 mm1019 Hpa
16:05:03289 °(WNW)4.6 Kts5.93 Kts8.2 Kts33 °C36.03 °C0 mm1019 Hpa
16:00:49273 °(W)6.4 Kts6.36 Kts8.2 Kts33 °C36.15 °C0 mm1018.5 Hpa
15:55:35266 °(W)6.2 Kts5.7 Kts8.2 Kts33 °C36.15 °C0 mm1019 Hpa
15:50:20279 °(W)6.4 Kts5.76 Kts8.2 Kts33 °C36.15 °C0 mm1019.4 Hpa